Time;durP1;ratioP1;P1;durP2;ratioP2;P2;SDS_P1;SDS_P2;PMS_P1;PMS_P2;Temp;Humidity;BMP_temperature;BMP_pressure;BME280_temperature;BME280_humidity;BME280_pressure;Samples;Min_cycle;Max_cycle;Signal;HPM_P1;HPM_P2
2024/04/17 00:01:56;;;;;;;14.17;5.50;;;8.20;99.90;;;;;;5487986;26;20218;-81
2024/04/17 00:04:22;;;;;;;18.53;4.87;;;8.30;99.90;;;;;;5485672;26;20263;-81
2024/04/17 00:06:48;;;;;;;16.63;4.50;;;8.30;99.90;;;;;;5485253;26;20676;-82
2024/04/17 00:09:13;;;;;;;16.67;5.30;;;8.40;99.90;;;;;;5486522;26;20292;-80
2024/04/17 00:11:39;;;;;;;16.53;4.63;;;8.40;99.90;;;;;;5487613;26;20684;-80
2024/04/17 00:14:04;;;;;;;14.67;4.83;;;8.50;99.90;;;;;;5489590;26;20646;-81
2024/04/17 00:16:30;;;;;;;15.80;5.07;;;8.60;99.90;;;;;;5487734;26;20692;-81
2024/04/17 00:18:56;;;;;;;15.73;4.93;;;8.60;99.90;;;;;;5486928;26;20300;-81
2024/04/17 00:21:21;;;;;;;12.13;4.57;;;8.60;99.90;;;;;;5485267;26;20224;-80
2024/04/17 00:23:47;;;;;;;15.13;4.60;;;8.60;98.60;;;;;;5486224;26;20267;-80
2024/04/17 00:26:13;;;;;;;17.10;4.23;;;8.60;96.70;;;;;;5489133;26;20220;-81
2024/04/17 00:28:38;;;;;;;16.73;4.63;;;8.60;97.60;;;;;;5484950;26;20216;-82
2024/04/17 00:31:04;;;;;;;15.97;4.30;;;8.60;97.30;;;;;;5487018;26;20262;-81
2024/04/17 00:33:30;;;;;;;18.93;4.23;;;8.50;96.60;;;;;;5477345;26;20793;-81
2024/04/17 00:35:56;;;;;;;14.23;4.37;;;8.50;97.30;;;;;;5449162;26;20209;-81
2024/04/17 00:38:21;;;;;;;14.13;4.27;;;8.40;99.00;;;;;;5448367;26;21001;-81
2024/04/17 00:40:47;;;;;;;18.73;5.63;;;8.50;99.90;;;;;;5448286;26;20221;-81
2024/04/17 00:43:13;;;;;;;15.43;4.80;;;8.60;99.90;;;;;;5448751;26;20255;-81
2024/04/17 00:45:39;;;;;;;18.30;5.13;;;8.50;97.30;;;;;;5448662;26;20248;-82
2024/04/17 00:48:08;;;;;;;16.30;6.50;;;8.40;97.50;;;;;;5454185;26;20273;-82
2024/04/17 00:50:34;;;;;;;19.90;7.17;;;8.30;99.90;;;;;;5454238;26;20213;-82
2024/04/17 00:53:02;;;;;;;19.00;7.37;;;8.30;99.90;;;;;;5453471;26;20209;-81
2024/04/17 00:55:29;;;;;;;22.17;9.00;;;8.20;99.90;;;;;;5453622;26;20214;-82
2024/04/17 00:57:56;;;;;;;24.83;11.23;;;8.20;99.90;;;;;;5452885;26;20313;-81
2024/04/17 01:00:21;;;;;;;21.10;8.23;;;8.20;99.90;;;;;;5452067;26;20998;-82
2024/04/17 01:02:47;;;;;;;24.30;12.47;;;8.30;99.90;;;;;;5452088;26;20228;-81
2024/04/17 01:05:13;;;;;;;18.83;9.93;;;8.30;99.90;;;;;;5453145;26;20214;-82
2024/04/17 01:07:39;;;;;;;18.30;8.90;;;8.20;99.90;;;;;;5451326;26;20689;-82
2024/04/17 01:10:06;;;;;;;20.03;9.10;;;8.40;99.90;;;;;;5452379;26;20214;-80
2024/04/17 01:12:32;;;;;;;21.00;9.00;;;8.30;99.90;;;;;;5451885;26;20225;-81
2024/04/17 01:14:57;;;;;;;18.30;7.27;;;8.20;99.90;;;;;;5453047;26;20256;-81
2024/04/17 01:17:23;;;;;;;17.33;8.27;;;8.00;99.90;;;;;;5454322;26;20225;-83
2024/04/17 01:19:49;;;;;;;18.33;8.97;;;8.00;99.90;;;;;;5450013;26;20555;-82
2024/04/17 01:22:14;;;;;;;15.27;5.90;;;7.90;99.90;;;;;;5450920;26;20618;-81
2024/04/17 01:24:40;;;;;;;18.97;7.67;;;7.90;99.90;;;;;;5450395;26;20221;-81
2024/04/17 01:27:05;;;;;;;19.90;7.03;;;7.90;99.90;;;;;;5451320;26;20767;-80
2024/04/17 01:29:32;;;;;;;17.57;8.10;;;7.90;99.90;;;;;;5452482;26;20210;-81
2024/04/17 01:31:58;;;;;;;17.70;6.93;;;7.90;99.90;;;;;;5452925;26;20251;-81
2024/04/17 01:34:25;;;;;;;19.57;6.67;;;7.90;99.90;;;;;;5476478;26;20765;-81
2024/04/17 01:36:52;;;;;;;16.73;5.93;;;7.80;99.90;;;;;;5488550;26;20625;-81
2024/04/17 01:39:17;;;;;;;18.10;5.37;;;7.80;99.90;;;;;;5486875;26;20217;-81
2024/04/17 01:41:43;;;;;;;19.47;5.20;;;7.80;99.90;;;;;;5486523;26;20220;-81
2024/04/17 01:44:09;;;;;;;20.53;5.83;;;7.80;99.90;;;;;;5487107;26;20305;-81
2024/04/17 01:46:34;;;;;;;18.37;5.57;;;7.80;99.90;;;;;;5488500;26;20312;-82
2024/04/17 01:49:00;;;;;;;15.67;5.70;;;7.60;99.90;;;;;;5487224;26;20239;-81
2024/04/17 01:51:26;;;;;;;14.63;4.83;;;7.60;99.90;;;;;;5487601;26;20239;-81
2024/04/17 01:53:51;;;;;;;13.70;5.83;;;7.70;99.90;;;;;;5489663;26;20259;-81
2024/04/17 01:56:17;;;;;;;12.50;5.03;;;7.60;99.90;;;;;;5490040;26;20616;-81
2024/04/17 01:58:44;;;;;;;14.03;5.20;;;7.60;99.90;;;;;;5485611;26;20684;-82
2024/04/17 02:01:09;;;;;;;11.63;5.20;;;7.60;99.90;;;;;;5487302;26;20204;-81
2024/04/17 02:03:36;;;;;;;13.33;4.73;;;7.50;99.90;;;;;;5487488;26;20243;-81
2024/04/17 02:06:02;;;;;;;13.80;4.37;;;7.60;99.90;;;;;;5488491;26;20547;-80
2024/04/17 02:08:28;;;;;;;11.83;5.00;;;7.40;99.90;;;;;;5488813;26;20212;-81
2024/04/17 02:10:53;;;;;;;10.33;4.30;;;7.30;99.90;;;;;;5487946;26;20242;-81
2024/04/17 02:13:19;;;;;;;13.57;5.20;;;7.40;99.90;;;;;;5486176;26;20262;-81
2024/04/17 02:15:45;;;;;;;11.67;4.97;;;7.40;99.90;;;;;;5487308;26;20240;-81
2024/04/17 02:18:11;;;;;;;9.23;4.53;;;7.40;99.90;;;;;;5488553;26;20262;-80
2024/04/17 02:20:36;;;;;;;11.57;4.30;;;7.40;99.90;;;;;;5487574;26;20251;-81
2024/04/17 02:23:02;;;;;;;9.90;4.00;;;7.40;99.90;;;;;;5486073;26;20216;-81
2024/04/17 02:25:28;;;;;;;8.23;3.63;;;7.30;99.90;;;;;;5489935;26;20264;-81
2024/04/17 02:27:54;;;;;;;11.80;2.70;;;7.30;99.90;;;;;;5488796;26;20284;-81
2024/04/17 02:30:19;;;;;;;12.27;3.50;;;7.40;99.90;;;;;;5489288;26;20216;-80
2024/04/17 02:32:45;;;;;;;5.77;2.40;;;7.40;99.90;;;;;;5487476;26;20216;-81
2024/04/17 02:35:11;;;;;;;10.47;2.73;;;7.40;99.90;;;;;;5487035;26;20274;-80
2024/04/17 02:37:36;;;;;;;7.23;2.40;;;7.40;99.90;;;;;;5484972;26;20721;-82
2024/04/17 02:40:02;;;;;;;7.37;2.70;;;7.30;99.90;;;;;;5487332;26;21039;-81
2024/04/17 02:42:28;;;;;;;8.90;2.90;;;7.40;99.90;;;;;;5489395;26;20592;-81
2024/04/17 02:44:54;;;;;;;6.60;2.60;;;7.40;99.90;;;;;;5486225;26;20259;-82
2024/04/17 02:47:19;;;;;;;9.23;2.83;;;7.30;99.90;;;;;;5486242;26;20375;-82
2024/04/17 02:49:45;;;;;;;6.30;2.50;;;7.30;99.90;;;;;;5488806;26;20212;-82
2024/04/17 02:52:11;;;;;;;5.47;2.43;;;7.40;99.90;;;;;;5486068;26;20212;-82
2024/04/17 02:54:37;;;;;;;5.33;2.20;;;7.40;99.90;;;;;;5485231;26;20228;-82
2024/04/17 02:57:03;;;;;;;6.63;2.30;;;7.30;99.90;;;;;;5487920;26;20216;-82
2024/04/17 02:59:28;;;;;;;4.90;2.40;;;7.40;99.90;;;;;;5488157;26;20677;-82
2024/04/17 03:01:56;;;;;;;7.20;2.03;;;7.50;99.90;;;;;;5487392;26;20231;-82
2024/04/17 03:04:21;;;;;;;7.97;2.50;;;7.50;99.90;;;;;;5487356;26;20591;-81
2024/04/17 03:06:47;;;;;;;6.43;2.27;;;7.50;99.90;;;;;;5488592;26;20347;-82
2024/04/17 03:09:13;;;;;;;6.47;2.57;;;7.60;99.90;;;;;;5488946;26;20527;-82
2024/04/17 03:11:39;;;;;;;6.87;2.43;;;7.70;99.90;;;;;;5487402;26;20312;-82
2024/04/17 03:14:04;;;;;;;4.33;2.50;;;7.60;99.90;;;;;;5487818;26;20623;-80
2024/04/17 03:16:30;;;;;;;7.83;2.63;;;7.70;99.90;;;;;;5488597;26;20220;-80
2024/04/17 03:18:56;;;;;;;6.73;2.60;;;7.70;99.90;;;;;;5489041;26;20254;-81
2024/04/17 03:21:21;;;;;;;6.83;2.37;;;7.80;99.90;;;;;;5485384;26;20208;-81
2024/04/17 03:23:47;;;;;;;4.23;2.20;;;7.90;99.90;;;;;;5489741;26;20234;-80
2024/04/17 03:26:13;;;;;;;6.17;2.40;;;8.00;99.90;;;;;;5486875;26;20685;-81
2024/04/17 03:28:38;;;;;;;6.10;2.10;;;8.10;99.90;;;;;;5488298;26;20246;-81
2024/04/17 03:31:04;;;;;;;5.87;2.60;;;8.10;99.90;;;;;;5485104;26;20713;-80
2024/04/17 03:33:30;;;;;;;6.73;2.70;;;8.10;99.90;;;;;;5487764;26;20278;-80
2024/04/17 03:35:56;;;;;;;4.93;2.67;;;8.30;99.90;;;;;;5487316;26;20272;-81
2024/04/17 03:38:23;;;;;;;6.27;2.70;;;8.30;99.90;;;;;;5488169;26;20324;-81
2024/04/17 03:40:48;;;;;;;6.20;2.60;;;8.20;99.90;;;;;;5487605;26;20251;-80
2024/04/17 03:43:14;;;;;;;6.07;2.60;;;8.10;98.00;;;;;;5486467;26;20216;-81
2024/04/17 03:45:40;;;;;;;5.57;2.57;;;8.00;99.90;;;;;;5486224;26;20216;-81
2024/04/17 03:48:06;;;;;;;6.77;2.43;;;8.00;99.90;;;;;;5488940;26;20328;-80
2024/04/17 03:50:32;;;;;;;9.37;2.70;;;8.10;99.90;;;;;;5486834;26;20680;-81
2024/04/17 03:52:57;;;;;;;6.33;2.53;;;8.00;99.90;;;;;;5486383;26;20255;-81
2024/04/17 03:55:23;;;;;;;8.40;2.43;;;7.90;99.90;;;;;;5487998;26;20554;-82
2024/04/17 03:57:49;;;;;;;5.77;2.30;;;7.90;99.90;;;;;;5487541;26;20664;-81
2024/04/17 04:00:15;;;;;;;6.60;2.50;;;7.80;99.90;;;;;;5484419;26;20590;-81
2024/04/17 04:02:41;;;;;;;5.33;3.00;;;7.80;99.90;;;;;;5485725;26;20227;-81
2024/04/17 04:05:07;;;;;;;5.17;2.60;;;7.80;99.90;;;;;;5485762;26;20267;-80
2024/04/17 04:07:32;;;;;;;6.10;2.60;;;7.70;99.90;;;;;;5488135;26;20208;-81
2024/04/17 04:09:58;;;;;;;6.33;2.27;;;7.80;99.90;;;;;;5487202;26;20275;-81
2024/04/17 04:12:24;;;;;;;6.17;2.70;;;7.70;99.90;;;;;;5486048;26;20709;-80
2024/04/17 04:14:50;;;;;;;3.87;2.50;;;7.70;99.90;;;;;;5486605;26;20247;-80
2024/04/17 04:17:15;;;;;;;5.27;2.50;;;7.70;99.90;;;;;;5488079;26;20240;-80
2024/04/17 04:19:42;;;;;;;4.37;2.63;;;7.70;99.90;;;;;;5486045;26;20323;-81
2024/04/17 04:22:08;;;;;;;6.33;2.70;;;7.80;99.90;;;;;;5485658;26;20236;-82
2024/04/17 04:24:33;;;;;;;5.10;2.70;;;7.80;99.90;;;;;;5486396;26;20251;-80
2024/04/17 04:26:59;;;;;;;6.10;2.87;;;8.00;99.90;;;;;;5487280;26;20680;-80
2024/04/17 04:29:25;;;;;;;5.53;2.93;;;7.80;99.90;;;;;;5485100;26;20992;-81
2024/04/17 04:31:50;;;;;;;7.73;3.20;;;7.80;99.90;;;;;;5485994;26;20285;-80
2024/04/17 04:34:16;;;;;;;8.13;3.17;;;7.80;99.90;;;;;;5486286;26;20556;-81
2024/04/17 04:36:42;;;;;;;5.77;2.80;;;7.90;99.90;;;;;;5487996;26;20551;-80
2024/04/17 04:39:07;;;;;;;7.47;3.33;;;8.00;99.90;;;;;;5486411;26;20723;-80
2024/04/17 04:41:33;;;;;;;5.50;2.73;;;8.00;99.90;;;;;;5482364;26;20916;-81
2024/04/17 04:43:59;;;;;;;5.60;2.90;;;7.90;99.90;;;;;;5485359;26;20208;-81
2024/04/17 04:46:24;;;;;;;5.03;2.90;;;7.90;99.90;;;;;;5486652;26;20262;-82
2024/04/17 04:48:50;;;;;;;6.90;3.17;;;7.80;99.90;;;;;;5486092;26;20246;-80
2024/04/17 04:51:16;;;;;;;6.30;3.47;;;7.70;99.90;;;;;;5485857;26;20247;-81
2024/04/17 04:53:42;;;;;;;9.60;4.23;;;7.60;99.90;;;;;;5487666;26;20243;-80
2024/04/17 04:56:07;;;;;;;7.57;4.03;;;7.50;99.90;;;;;;5483249;26;20251;-82
2024/04/17 04:58:33;;;;;;;6.90;4.10;;;7.60;99.90;;;;;;5487484;26;20654;-81
2024/04/17 05:00:59;;;;;;;6.63;4.30;;;7.50;99.90;;;;;;5481191;26;20260;-81
2024/04/17 05:03:25;;;;;;;8.03;4.40;;;7.50;99.90;;;;;;5485140;26;20220;-82
2024/04/17 05:05:50;;;;;;;7.67;4.33;;;7.50;99.90;;;;;;5487142;26;20208;-80
2024/04/17 05:08:16;;;;;;;9.43;4.80;;;7.50;99.90;;;;;;5485840;26;20268;-82
2024/04/17 05:10:42;;;;;;;9.33;5.07;;;7.40;99.90;;;;;;5483922;26;20356;-80
2024/04/17 05:13:08;;;;;;;10.23;5.00;;;7.50;99.90;;;;;;5485675;26;20236;-81
2024/04/17 05:15:33;;;;;;;9.50;5.73;;;7.60;99.90;;;;;;5485487;26;20232;-81
2024/04/17 05:17:59;;;;;;;11.70;5.03;;;7.60;99.90;;;;;;5485994;26;20317;-81
2024/04/17 05:20:26;;;;;;;12.07;6.53;;;7.70;99.90;;;;;;5487231;26;20508;-82
2024/04/17 05:22:52;;;;;;;8.50;5.53;;;7.70;99.90;;;;;;5484245;26;20322;-82
2024/04/17 05:25:20;;;;;;;11.30;6.20;;;7.70;99.90;;;;;;5483872;26;20224;-80
2024/04/17 05:27:46;;;;;;;7.73;5.17;;;7.70;99.90;;;;;;5484018;26;20225;-81
2024/04/17 05:30:12;;;;;;;10.10;4.97;;;7.70;99.90;;;;;;5484456;26;20276;-81
2024/04/17 05:32:38;;;;;;;10.33;5.20;;;7.70;99.90;;;;;;5484613;26;20228;-81
2024/04/17 05:35:04;;;;;;;10.63;5.73;;;7.60;99.90;;;;;;5490155;26;20274;-85
2024/04/17 05:37:33;;;;;;;9.60;5.37;;;7.70;99.90;;;;;;5488744;26;20262;-81
2024/04/17 05:39:58;;;;;;;13.63;6.13;;;7.60;99.90;;;;;;5489363;26;20652;-81
2024/04/17 05:42:24;;;;;;;13.13;5.57;;;7.60;99.90;;;;;;5489350;26;20736;-81
2024/04/17 05:44:50;;;;;;;10.93;5.73;;;7.60;99.90;;;;;;5485841;26;20551;-83
2024/04/17 05:47:16;;;;;;;11.87;5.57;;;7.70;99.90;;;;;;5487620;26;20232;-81
2024/04/17 05:49:42;;;;;;;7.30;5.00;;;7.70;99.90;;;;;;5489546;26;20220;-84
2024/04/17 05:52:09;;;;;;;11.10;4.87;;;7.70;99.90;;;;;;5487037;26;20566;-83
2024/04/17 05:54:36;;;;;;;8.27;4.57;;;7.90;99.90;;;;;;5485761;26;20247;-82
2024/04/17 05:57:01;;;;;;;11.73;5.43;;;7.80;99.90;;;;;;5489981;26;20696;-85
2024/04/17 05:59:27;;;;;;;10.57;4.50;;;7.80;99.90;;;;;;5490722;26;20213;-84
2024/04/17 06:01:53;;;;;;;9.73;5.10;;;7.90;99.90;;;;;;5475311;26;20233;-84
2024/04/17 06:04:18;;;;;;;15.03;5.47;;;8.00;99.90;;;;;;5482331;26;20581;-84
2024/04/17 06:06:44;;;;;;;12.60;4.10;;;8.10;99.90;;;;;;5488161;26;20255;-83
2024/04/17 06:09:10;;;;;;;14.57;4.80;;;8.20;99.90;;;;;;5479564;26;20225;-85
2024/04/17 06:11:36;;;;;;;10.20;4.70;;;8.30;99.90;;;;;;5483853;26;20251;-85
2024/04/17 06:14:01;;;;;;;9.37;3.67;;;8.40;99.90;;;;;;5486090;26;20232;-81
2024/04/17 06:16:27;;;;;;;8.67;4.33;;;8.30;99.90;;;;;;5478370;26;20730;-82
2024/04/17 06:18:53;;;;;;;9.30;4.20;;;8.30;99.90;;;;;;5472338;26;20568;-83
2024/04/17 06:21:18;;;;;;;11.87;4.30;;;8.50;99.90;;;;;;5460280;26;20233;-82
2024/04/17 06:23:44;;;;;;;11.07;4.03;;;8.40;99.90;;;;;;5452349;26;20560;-84
2024/04/17 06:26:10;;;;;;;10.13;3.70;;;8.40;99.90;;;;;;5469689;26;20220;-82
2024/04/17 06:28:35;;;;;;;9.83;3.33;;;8.30;99.90;;;;;;5482349;26;20225;-82
2024/04/17 06:31:01;;;;;;;10.67;4.17;;;8.40;99.90;;;;;;5468206;26;20716;-81
2024/04/17 06:33:26;;;;;;;7.83;3.83;;;8.40;99.90;;;;;;5454531;26;20609;-81
2024/04/17 06:35:52;;;;;;;7.83;4.00;;;8.40;99.90;;;;;;5472236;26;20293;-81
2024/04/17 06:38:18;;;;;;;7.07;3.30;;;8.40;99.90;;;;;;5479414;26;20812;-80
2024/04/17 06:40:43;;;;;;;11.80;4.13;;;8.50;99.90;;;;;;5471570;26;20379;-81
2024/04/17 06:43:09;;;;;;;11.17;4.00;;;8.50;99.90;;;;;;5470854;26;20249;-80
2024/04/17 06:45:35;;;;;;;12.47;3.93;;;8.60;99.90;;;;;;5454559;26;20233;-80
2024/04/17 06:48:03;;;;;;;10.03;3.93;;;8.50;99.90;;;;;;5473061;26;20279;-81
2024/04/17 06:50:28;;;;;;;9.37;3.80;;;8.50;99.90;;;;;;5451076;26;20237;-80
2024/04/17 06:52:55;;;;;;;10.93;3.77;;;8.40;99.90;;;;;;5450365;26;20283;-81
2024/04/17 06:55:20;;;;;;;13.30;4.23;;;8.60;99.90;;;;;;5452339;26;20221;-81
2024/04/17 06:57:46;;;;;;;9.93;4.27;;;8.70;99.90;;;;;;5450808;26;20324;-80
2024/04/17 07:00:12;;;;;;;11.73;4.33;;;8.60;95.80;;;;;;5467090;26;20794;-81
2024/04/17 07:02:38;;;;;;;12.73;3.43;;;8.60;96.50;;;;;;5457095;26;20313;-80
2024/04/17 07:05:04;;;;;;;10.90;3.70;;;8.80;94.80;;;;;;5450535;26;20229;-80
2024/04/17 07:07:29;;;;;;;10.60;3.90;;;8.80;92.60;;;;;;5450240;26;20225;-80
2024/04/17 07:09:55;;;;;;;9.47;3.90;;;8.80;91.70;;;;;;5451694;26;20251;-82
2024/04/17 07:12:21;;;;;;;7.20;2.60;;;8.70;93.00;;;;;;5453108;26;20229;-80
2024/04/17 07:14:48;;;;;;;12.30;3.87;;;8.50;87.40;;;;;;5487121;26;20585;-81
2024/04/17 07:17:14;;;;;;;12.80;3.40;;;8.50;86.80;;;;;;5485460;26;20240;-81
2024/04/17 07:19:40;;;;;;;11.03;3.40;;;8.60;85.60;;;;;;5488656;26;20595;-80
2024/04/17 07:22:06;;;;;;;11.73;3.63;;;8.60;85.30;;;;;;5486568;26;20216;-80
2024/04/17 07:24:31;;;;;;;10.93;3.97;;;8.80;82.80;;;;;;5486629;26;20216;-80
2024/04/17 07:26:57;;;;;;;13.07;3.40;;;8.70;82.90;;;;;;5489407;26;20731;-81
2024/04/17 07:29:23;;;;;;;10.73;3.43;;;8.80;84.40;;;;;;5483392;26;20713;-80
2024/04/17 07:31:49;;;;;;;12.97;3.70;;;8.60;74.10;;;;;;5487267;26;20232;-80
2024/04/17 07:34:14;;;;;;;11.23;4.10;;;8.70;76.10;;;;;;5488860;26;20307;-82
2024/04/17 07:36:40;;;;;;;11.33;3.37;;;8.90;80.10;;;;;;5487067;26;20216;-85
2024/04/17 07:39:06;;;;;;;14.37;4.00;;;9.00;77.00;;;;;;5487377;26;20338;-87
2024/04/17 07:41:32;;;;;;;13.30;3.97;;;8.80;75.90;;;;;;5481173;26;20232;-89
2024/04/17 07:43:58;;;;;;;12.13;3.87;;;8.80;75.50;;;;;;5468154;26;20229;-87
2024/04/17 07:46:23;;;;;;;14.23;3.53;;;9.00;77.90;;;;;;5452200;26;20229;-93
2024/04/17 07:48:50;;;;;;;11.80;3.60;;;9.20;68.40;;;;;;5479141;26;20229;-92
2024/04/17 07:51:16;;;;;;;12.53;3.43;;;9.20;57.10;;;;;;5451267;26;20678;-93
2024/04/17 07:53:42;;;;;;;11.50;3.90;;;9.20;55.10;;;;;;5453535;26;20291;-91
2024/04/17 07:56:08;;;;;;;13.43;3.50;;;9.40;56.30;;;;;;5450579;26;20225;-92
2024/04/17 07:58:33;;;;;;;13.60;3.27;;;9.40;50.00;;;;;;5451598;26;20225;-91
2024/04/17 08:00:59;;;;;;;12.77;4.27;;;9.30;41.30;;;;;;5482519;26;20259;-88
2024/04/17 08:03:25;;;;;;;12.97;3.37;;;9.50;42.20;;;;;;5488074;26;20574;-91
2024/04/17 08:05:51;;;;;;;11.20;2.97;;;9.60;38.80;;;;;;5486687;26;20224;-89
2024/04/17 08:08:17;;;;;;;11.37;2.77;;;9.60;26.90;;;;;;5487252;26;20599;-90
2024/04/17 08:10:43;;;;;;;11.27;3.00;;;9.50;26.30;;;;;;5487155;26;20317;-91
2024/04/17 08:13:12;;;;;;;11.40;3.10;;;9.60;26.40;;;;;;5480352;26;20253;-91
2024/04/17 08:15:42;;;;;;;11.20;2.73;;;9.70;24.50;;;;;;5466355;26;20320;-91
2024/04/17 08:18:07;;;;;;;9.53;2.90;;;9.80;24.80;;;;;;5483519;26;20331;-90
2024/04/17 08:20:33;;;;;;;9.17;3.20;;;9.80;21.50;;;;;;5466911;26;20267;-92
2024/04/17 08:22:59;;;;;;;7.53;2.73;;;9.90;23.20;;;;;;5488493;26;20272;-91
2024/04/17 08:25:24;;;;;;;11.77;2.80;;;10.10;24.30;;;;;;5471701;26;20237;-88
2024/04/17 08:27:50;;;;;;;11.37;3.03;;;10.30;21.20;;;;;;5486293;26;20812;-76
2024/04/17 08:30:16;;;;;;;9.63;2.87;;;10.30;18.50;;;;;;5462337;26;20271;-76
2024/04/17 08:32:43;;;;;;;9.63;2.70;;;10.50;27.80;;;;;;5461995;26;20229;-77
2024/04/17 08:35:09;;;;;;;11.73;2.70;;;10.70;18.70;;;;;;5453445;26;20233;-77
2024/04/17 08:37:37;;;;;;;13.40;2.50;;;10.50;11.80;;;;;;5451428;26;20268;-80
2024/04/17 08:40:04;;;;;;;7.37;2.40;;;10.20;6.10;;;;;;5449862;26;20272;-76
2024/04/17 08:42:35;;;;;;;11.97;2.97;;;10.50;10.60;;;;;;5450395;26;20229;-77
2024/04/17 08:45:11;;;;;;;11.07;2.63;;;10.60;7.10;;;;;;5447833;26;20272;-79
2024/04/17 08:47:39;;;;;;;12.50;3.83;;;10.40;3.40;;;;;;5449273;26;20221;-79
2024/04/17 08:50:05;;;;;;;10.40;2.77;;;10.20;1.10;;;;;;5449834;26;20225;-77
2024/04/17 08:52:34;;;;;;;8.27;2.80;;;10.10;3.10;;;;;;5451543;26;20229;-77
2024/04/17 08:55:00;;;;;;;12.57;2.60;;;10.20;1.00;;;;;;5479657;26;20244;-89
2024/04/17 08:57:27;;;;;;;13.47;2.77;;;10.30;6.00;;;;;;5482862;26;20232;-86
2024/04/17 08:59:53;;;;;;;8.43;2.30;;;10.30;6.90;;;;;;5484044;26;20300;-86
2024/04/17 09:02:19;;;;;;;7.17;2.50;;;10.20;1.10;;;;;;5482421;26;20255;-86
2024/04/17 09:04:46;;;;;;;13.53;2.90;;;10.30;4.80;;;;;;5476332;26;20224;-88
2024/04/17 09:07:12;;;;;;;6.87;2.17;;;10.60;5.30;;;;;;5450393;26;20246;-88
2024/04/17 09:09:39;;;;;;;8.43;2.43;;;10.90;1.00;;;;;;5464397;26;20271;-87
2024/04/17 09:12:07;;;;;;;14.30;2.27;;;10.90;1.00;;;;;;5488912;26;20220;-87
2024/04/17 09:14:32;;;;;;;11.10;2.90;;;10.60;1.00;;;;;;5481286;26;20280;-88
2024/04/17 09:16:59;;;;;;;9.67;2.30;;;10.60;1.00;;;;;;5477059;26;20589;-88
2024/04/17 09:19:24;;;;;;;6.60;1.90;;;10.70;1.00;;;;;;5491023;26;20303;-87
2024/04/17 09:21:51;;;;;;;6.17;1.90;;;10.80;1.00;;;;;;5489871;26;20601;-89
2024/04/17 09:24:18;;;;;;;9.70;2.60;;;10.70;1.00;;;;;;5493115;26;20681;-88
2024/04/17 09:26:44;;;;;;;9.03;2.40;;;10.70;1.00;;;;;;5489561;26;20251;-87
2024/04/17 09:29:14;;;;;;;7.47;2.33;;;10.90;1.00;;;;;;5487544;26;20232;-89
2024/04/17 09:31:42;;;;;;;9.27;1.90;;;11.10;1.00;;;;;;5490840;26;20328;-87
2024/04/17 09:34:08;;;;;;;7.13;1.93;;;11.10;1.00;;;;;;5489699;26;20247;-87
2024/04/17 09:36:34;;;;;;;9.90;2.17;;;10.90;1.00;;;;;;5487952;26;20216;-86
2024/04/17 09:39:09;;;;;;;6.47;2.20;;;10.60;1.00;;;;;;5489060;26;20258;-91
2024/04/17 09:41:40;;;;;;;5.80;1.73;;;10.50;1.00;;;;;;5490097;26;20247;-89
2024/04/17 09:44:08;;;;;;;9.27;1.67;;;10.30;1.00;;;;;;5488753;26;20247;-89
2024/04/17 09:46:34;;;;;;;2.93;1.50;;;10.10;1.00;;;;;;5490636;26;20271;-88
2024/04/17 09:49:24;;;;;;;2.47;1.07;;;9.70;1.00;;;;;;5486847;26;20224;-87
2024/04/17 09:51:57;;;;;;;2.13;1.43;;;9.00;1.00;;;;;;5488600;26;20250;-87
2024/04/17 09:54:23;;;;;;;3.20;1.47;;;8.60;6.60;;;;;;5487075;26;20660;-87
2024/04/17 09:56:49;;;;;;;2.57;1.03;;;8.50;16.90;;;;;;5488365;26;20228;-88
2024/04/17 09:59:20;;;;;;;3.43;1.30;;;8.30;14.90;;;;;;5488760;26;20276;-86
2024/04/17 10:01:47;;;;;;;2.80;1.10;;;8.20;19.70;;;;;;5487929;26;20320;-87
2024/04/17 10:04:14;;;;;;;4.27;1.40;;;8.20;17.70;;;;;;5488806;26;20279;-87
2024/04/17 10:06:44;;;;;;;2.30;1.10;;;8.30;11.60;;;;;;5487882;26;20232;-87
2024/04/17 10:09:13;;;;;;;4.13;1.20;;;8.40;3.80;;;;;;5489355;26;20262;-88
2024/04/17 10:11:39;;;;;;;1.93;1.00;;;8.70;9.80;;;;;;5489325;26;20263;-86
2024/04/17 10:14:10;;;;;;;1.47;0.90;;;8.50;14.70;;;;;;5486853;26;20292;-86
2024/04/17 10:16:36;;;;;;;2.00;0.87;;;8.30;15.20;;;;;;5486391;26;20270;-87
2024/04/17 10:19:03;;;;;;;3.00;1.17;;;8.20;15.50;;;;;;5486029;26;20284;-87
2024/04/17 10:21:33;;;;;;;2.83;1.30;;;8.20;20.80;;;;;;5487402;26;20220;-86
2024/04/17 10:24:03;;;;;;;3.23;1.40;;;8.20;18.80;;;;;;5489175;26;20263;-86
2024/04/17 10:26:40;;;;;;;4.27;1.60;;;8.10;16.80;;;;;;5487912;26;20344;-88
2024/04/17 10:29:13;;;;;;;1.63;1.10;;;8.10;20.90;;;;;;5486782;26;20758;-86
2024/04/17 10:31:40;;;;;;;2.50;1.17;;;8.20;22.00;;;;;;5487486;26;20313;-87
2024/04/17 10:34:06;;;;;;;1.87;1.40;;;8.00;26.00;;;;;;5486825;26;20212;-87
2024/04/17 10:36:33;;;;;;;3.13;1.80;;;7.70;37.80;;;;;;5489477;26;20216;-85
2024/04/17 10:39:00;;;;;;;2.83;1.73;;;7.40;57.60;;;;;;5488930;26;20260;-88
2024/04/17 10:41:29;;;;;;;2.57;1.53;;;7.20;69.80;;;;;;5488305;26;20254;-88
2024/04/17 10:43:58;;;;;;;3.07;1.90;;;6.90;89.30;;;;;;5486654;26;20285;-87
2024/04/17 10:46:23;;;;;;;2.10;1.30;;;7.00;94.50;;;;;;5487347;26;20255;-87
2024/04/17 10:48:50;;;;;;;2.37;1.50;;;7.00;98.10;;;;;;5486597;26;20224;-86
2024/04/17 10:51:17;;;;;;;3.40;1.33;;;7.10;99.90;;;;;;5485330;26;20659;-87
2024/04/17 10:53:45;;;;;;;2.90;1.53;;;6.90;99.60;;;;;;5488491;26;20288;-86
2024/04/17 10:56:12;;;;;;;2.43;1.20;;;6.80;99.90;;;;;;5488851;26;20224;-87
2024/04/17 10:58:39;;;;;;;2.23;1.30;;;6.80;99.90;;;;;;5487158;26;20271;-87
2024/04/17 11:01:05;;;;;;;2.70;1.40;;;7.00;99.90;;;;;;5485599;26;20216;-86
2024/04/17 11:03:31;;;;;;;4.23;1.50;;;7.20;99.90;;;;;;5486775;26;20216;-85
2024/04/17 11:05:58;;;;;;;2.00;1.43;;;7.30;99.90;;;;;;5486601;26;20236;-87
2024/04/17 11:08:23;;;;;;;2.80;1.50;;;7.50;99.90;;;;;;5474342;26;20304;-88
2024/04/17 11:10:49;;;;;;;1.40;1.07;;;7.50;99.90;;;;;;5483064;26;20225;-85
2024/04/17 11:13:16;;;;;;;3.60;2.10;;;7.60;98.20;;;;;;5485359;26;20224;-87
2024/04/17 11:15:42;;;;;;;2.47;1.60;;;7.80;93.60;;;;;;5453166;26;20213;-88
2024/04/17 11:18:09;;;;;;;3.47;1.60;;;7.90;91.80;;;;;;5465620;26;20274;-87
2024/04/17 11:20:36;;;;;;;2.43;1.50;;;8.20;92.40;;;;;;5466081;26;20221;-87
2024/04/17 11:23:09;;;;;;;2.63;1.77;;;8.30;92.30;;;;;;5451043;26;20360;-86
2024/04/17 11:25:40;;;;;;;1.83;1.23;;;8.40;91.40;;;;;;5452341;26;20225;-87
2024/04/17 11:28:12;;;;;;;2.40;1.47;;;8.50;77.00;;;;;;5448331;26;20662;-86
2024/04/17 11:30:48;;;;;;;3.43;1.73;;;8.60;55.80;;;;;;5457343;26;20525;-92
2024/04/17 11:33:14;;;;;;;2.37;1.73;;;8.60;56.10;;;;;;5480665;26;20593;-86
2024/04/17 11:35:40;;;;;;;2.33;1.70;;;8.60;57.30;;;;;;5472090;26;20234;-86
2024/04/17 11:38:11;;;;;;;1.93;1.20;;;8.60;58.80;;;;;;5470764;26;20237;-86
2024/04/17 11:40:37;;;;;;;2.07;1.50;;;8.40;49.70;;;;;;5450834;26;20272;-85
2024/04/17 11:43:13;;;;;;;1.93;1.50;;;8.10;60.10;;;;;;5470449;26;20249;-88
2024/04/17 11:45:39;;;;;;;5.60;1.73;;;8.10;73.10;;;;;;5461523;26;20559;-86
2024/04/17 11:48:05;;;;;;;3.80;1.63;;;8.00;78.60;;;;;;5462481;26;20237;-89
2024/04/17 11:50:32;;;;;;;3.43;1.73;;;7.90;72.50;;;;;;5462788;26;20333;-87
2024/04/17 11:52:59;;;;;;;3.57;1.60;;;7.90;84.90;;;;;;5470862;26;20263;-88
2024/04/17 11:55:24;;;;;;;2.60;2.03;;;7.90;90.50;;;;;;5471934;26;20363;-86
2024/04/17 11:57:50;;;;;;;4.20;1.90;;;8.00;92.00;;;;;;5482145;26;20826;-90
2024/04/17 12:00:16;;;;;;;3.97;1.83;;;8.00;91.90;;;;;;5477328;26;21577;-88
2024/04/17 12:02:41;;;;;;;4.03;1.70;;;7.90;88.10;;;;;;5478102;26;20232;-88
2024/04/17 12:05:08;;;;;;;2.67;1.67;;;8.00;70.60;;;;;;5483175;26;20331;-90
2024/04/17 12:07:34;;;;;;;3.20;1.77;;;8.10;63.20;;;;;;5481688;26;20260;-91
2024/04/17 12:10:00;;;;;;;2.80;1.80;;;8.10;58.30;;;;;;5482059;26;20276;-87
2024/04/17 12:12:25;;;;;;;2.70;1.90;;;8.10;60.70;;;;;;5481096;26;20240;-88
2024/04/17 12:14:51;;;;;;;3.83;1.80;;;8.20;66.10;;;;;;5482400;26;20239;-87
2024/04/17 12:17:17;;;;;;;2.37;1.87;;;8.10;64.00;;;;;;5482048;26;20240;-88
2024/04/17 12:19:43;;;;;;;2.80;2.03;;;8.00;72.00;;;;;;5482581;26;20220;-88
2024/04/17 12:22:08;;;;;;;2.77;1.90;;;8.00;75.10;;;;;;5482013;26;20228;-87
2024/04/17 12:27:18;;;;;;;2.60;1.60;;;8.10;68.40;;;;;;5479606;26;20952;-85
2024/04/17 12:29:44;;;;;;;3.83;2.00;;;8.10;62.00;;;;;;5479933;26;20236;-88
2024/04/17 12:32:10;;;;;;;3.70;2.17;;;8.10;62.20;;;;;;5481425;26;20232;-87
2024/04/17 12:34:36;;;;;;;2.93;1.70;;;8.30;65.80;;;;;;5483071;26;20316;-87
2024/04/17 12:37:02;;;;;;;2.67;1.80;;;8.40;58.70;;;;;;5483844;26;20224;-87
2024/04/17 12:39:28;;;;;;;3.27;1.80;;;8.60;70.70;;;;;;5477768;26;20224;-88
2024/04/17 12:41:53;;;;;;;4.67;2.00;;;8.80;58.10;;;;;;5481710;26;20232;-89
2024/04/17 12:44:19;;;;;;;2.07;1.40;;;9.00;55.30;;;;;;5485826;26;20228;-89
2024/04/17 12:46:45;;;;;;;2.73;1.70;;;9.20;36.00;;;;;;5488957;26;20250;-89
2024/04/17 12:49:11;;;;;;;2.27;1.80;;;9.30;31.70;;;;;;5481129;26;20245;-89
2024/04/17 12:51:37;;;;;;;1.90;1.70;;;9.40;25.00;;;;;;5454998;26;20337;-90